Arenas Valley, New Mexico
Current Conditions -  °F | °C
As of 3:15 PM on Monday 20 Oct 2014 (Local Time) from KSVC Reporting Station
Few Clouds Few Clouds  
Wind Chill: 63°   Ceiling: Unl
Heat Index: 63°   Visibility: 10mi
Dew Point: 50°   Wind: 12mph
Humidity: 63%   Direction: 120°ESE
Pressure: 30.13"   Gusts: NA
Location:  32.79°N, 108.18°W
Report Text: KSVC 202115Z AUTO 12010KT 10SM FEW032 17/10 A3013 RMK AO2
Loading
Personal Weather Stations






























Interactive Weather Map New forecast layout! Learn more

10-Day Weather Forecast

Advertisements
Track Severe Weather on mobile